createdAt,value
2022-11-05T00:02:05.988Z,7.25
2022-11-05T00:04:33.941Z,6.65
2022-11-05T00:07:06.453Z,7.30
2022-11-05T00:09:33.562Z,7.18
2022-11-05T00:12:03.232Z,6.60
2022-11-05T00:14:29.773Z,7.03
2022-11-05T00:16:56.243Z,7.20
2022-11-05T00:19:22.756Z,6.88
2022-11-05T00:21:50.637Z,6.65
2022-11-05T00:24:21.723Z,6.82
2022-11-05T00:29:17.315Z,7.00
2022-11-05T00:31:43.854Z,6.80
2022-11-05T00:34:10.400Z,7.78
2022-11-05T00:36:36.994Z,7.00
2022-11-05T00:39:06.754Z,7.30
2022-11-05T00:41:33.321Z,8.18
2022-11-05T00:44:00.051Z,8.68
2022-11-05T00:46:26.916Z,8.52
2022-11-05T00:48:53.479Z,8.05
2022-11-05T00:51:20.296Z,8.10
2022-11-05T00:53:46.808Z,7.88
2022-11-05T00:56:14.941Z,7.25
2022-11-05T00:58:41.589Z,9.02
2022-11-05T01:01:10.592Z,8.20
2022-11-05T01:03:39.369Z,8.07
2022-11-05T01:06:08.192Z,8.05
2022-11-05T01:08:34.807Z,8.23
2022-11-05T01:11:08.637Z,7.93
2022-11-05T01:13:36.704Z,7.97
2022-11-05T01:16:06.663Z,7.75
2022-11-05T01:18:33.267Z,7.97
2022-11-05T01:20:59.886Z,8.15
2022-11-05T01:23:26.624Z,9.00
2022-11-05T01:25:53.258Z,8.32
2022-11-05T01:28:19.878Z,7.78
2022-11-05T01:30:55.345Z,7.65
2022-11-05T01:33:21.869Z,7.97
2022-11-05T01:35:48.373Z,8.00
2022-11-05T01:38:14.849Z,8.30
2022-11-05T01:40:42.896Z,8.63
2022-11-05T01:43:16.013Z,9.07
2022-11-05T01:45:43.970Z,7.95
2022-11-05T01:48:16.481Z,8.50
2022-11-05T01:50:46.650Z,8.77
2022-11-05T01:53:19.726Z,7.78
2022-11-05T01:55:51.506Z,8.15
2022-11-05T01:58:22.361Z,8.07
2022-11-05T02:00:49.004Z,8.57
2022-11-05T02:03:18.088Z,8.63
2022-11-05T02:05:46.220Z,8.93
2022-11-05T02:08:19.893Z,8.73
2022-11-05T02:10:47.355Z,7.70
2022-11-05T02:13:14.078Z,8.50
2022-11-05T02:15:49.556Z,9.05
2022-11-05T02:18:27.648Z,9.23
2022-11-05T02:21:05.534Z,8.98
2022-11-05T02:23:57.738Z,7.93
2022-11-05T02:26:54.698Z,7.50
2022-11-05T02:29:54.333Z,8.63
2022-11-05T02:32:32.804Z,7.03
2022-11-05T02:35:11.345Z,7.57
2022-11-05T02:37:40.485Z,8.23
2022-11-05T02:40:16.493Z,7.32
2022-11-05T02:42:47.016Z,7.18
2022-11-05T02:45:26.566Z,6.97
2022-11-05T02:48:04.481Z,7.45
2022-11-05T02:50:34.836Z,7.22
2022-11-05T02:53:11.737Z,6.10
2022-11-05T02:55:42.202Z,6.65
2022-11-05T02:58:09.003Z,6.95
2022-11-05T03:00:48.758Z,6.65
2022-11-05T03:03:27.754Z,6.35
2022-11-05T03:06:23.772Z,6.70
2022-11-05T03:09:19.721Z,6.90
2022-11-05T03:11:55.007Z,6.38
2022-11-05T03:14:26.778Z,5.97
2022-11-05T03:17:01.881Z,6.03
2022-11-05T03:19:38.428Z,6.50
2022-11-05T03:22:10.167Z,5.93
2022-11-05T03:24:42.012Z,6.35
2022-11-05T03:27:11.660Z,6.68
2022-11-05T03:29:42.443Z,6.55
2022-11-05T03:32:10.860Z,6.10
2022-11-05T03:34:42.737Z,5.63
2022-11-05T03:37:11.029Z,6.43
2022-11-05T03:39:40.896Z,6.15
2022-11-05T03:42:11.483Z,6.07
2022-11-05T03:44:42.233Z,5.72
2022-11-05T03:47:13.741Z,5.70
2022-11-05T03:49:52.961Z,5.70
2022-11-05T03:52:23.809Z,5.50
2022-11-05T03:54:50.472Z,5.40
2022-11-05T03:57:21.727Z,5.75
2022-11-05T03:59:50.524Z,5.55
2022-11-05T04:02:19.850Z,5.55
2022-11-05T04:04:48.188Z,5.55
2022-11-05T04:07:14.896Z,5.88
2022-11-05T04:09:41.470Z,5.95
2022-11-05T04:12:08.523Z,5.43
2022-11-05T04:14:35.205Z,5.00
2022-11-05T04:17:01.740Z,5.82
2022-11-05T04:19:28.401Z,5.35
2022-11-05T04:21:56.311Z,5.20
2022-11-05T04:24:22.836Z,5.22
2022-11-05T04:26:49.305Z,5.00
2022-11-05T04:29:15.847Z,4.32
2022-11-05T04:31:42.375Z,4.80
2022-11-05T04:34:08.873Z,4.70
2022-11-05T04:36:35.608Z,5.30
2022-11-05T04:39:03.768Z,4.97
2022-11-05T04:41:30.384Z,4.25
2022-11-05T04:43:57.022Z,4.57
2022-11-05T04:46:23.734Z,4.93
2022-11-05T04:48:50.290Z,4.07
2022-11-05T04:51:16.871Z,4.22
2022-11-05T04:53:43.380Z,3.90
2022-11-05T04:56:12.864Z,4.10
2022-11-05T04:58:40.215Z,3.60
2022-11-05T05:01:06.910Z,4.40
2022-11-05T05:03:33.480Z,3.90
2022-11-05T05:06:03.688Z,4.38
2022-11-05T05:08:30.627Z,3.75
2022-11-05T05:11:01.618Z,3.72
2022-11-05T05:13:29.451Z,3.88
2022-11-05T05:15:55.955Z,4.72
2022-11-05T05:18:22.414Z,3.83
2022-11-05T05:20:48.907Z,4.65
2022-11-05T05:23:15.363Z,4.00
2022-11-05T05:25:41.909Z,4.72
2022-11-05T05:28:08.456Z,4.30
2022-11-05T05:30:36.371Z,4.45
2022-11-05T05:33:03.431Z,4.95
2022-11-05T05:35:30.078Z,4.75
2022-11-05T05:37:57.131Z,5.72
2022-11-05T05:40:23.634Z,4.78
2022-11-05T05:42:53.681Z,5.13
2022-11-05T05:45:20.289Z,4.75
2022-11-05T05:47:48.341Z,4.95
2022-11-05T05:50:15.047Z,5.35
2022-11-05T05:52:41.508Z,5.75
2022-11-05T05:55:08.820Z,5.78
2022-11-05T05:57:35.313Z,6.80
2022-11-05T06:00:01.915Z,6.25
2022-11-05T06:02:30.210Z,6.80
2022-11-05T06:04:58.396Z,6.22
2022-11-05T06:07:24.928Z,5.80
2022-11-05T06:09:51.464Z,5.93
2022-11-05T06:12:18.044Z,5.70
2022-11-05T06:14:44.566Z,5.38
2022-11-05T06:17:11.196Z,6.43
2022-11-05T06:19:37.742Z,5.82
2022-11-05T06:22:05.579Z,6.63
2022-11-05T06:24:32.209Z,5.57
2022-11-05T06:26:58.852Z,5.20
2022-11-05T06:29:25.390Z,5.10
2022-11-05T06:31:51.943Z,4.93
2022-11-05T06:34:18.409Z,5.03
2022-11-05T06:36:45.030Z,4.72
2022-11-05T06:39:13.169Z,4.68
2022-11-05T06:42:03.837Z,5.13
2022-11-05T06:44:26.502Z,5.35
2022-11-05T06:46:53.004Z,4.72
2022-11-05T06:49:19.557Z,5.55
2022-11-05T06:51:46.051Z,4.53
2022-11-05T06:54:13.937Z,6.40
2022-11-05T06:56:40.641Z,5.00
2022-11-05T06:59:07.137Z,5.30
2022-11-05T07:01:34.145Z,5.82
2022-11-05T07:04:00.975Z,4.40
2022-11-05T07:06:27.651Z,4.38
2022-11-05T07:08:54.183Z,4.78
2022-11-05T07:11:22.082Z,5.50
2022-11-05T07:13:48.637Z,5.38
2022-11-05T07:16:15.186Z,4.40
2022-11-05T07:18:41.745Z,5.00
2022-11-05T07:21:08.222Z,4.88
2022-11-05T07:23:34.697Z,4.82
2022-11-05T07:26:01.301Z,5.05
2022-11-05T07:28:29.201Z,4.72
2022-11-05T07:30:58.248Z,4.95
2022-11-05T07:33:24.735Z,5.30
2022-11-05T07:35:51.273Z,5.22
2022-11-05T07:38:17.795Z,5.10
2022-11-05T07:40:44.274Z,5.60
2022-11-05T07:43:11.116Z,5.43
2022-11-05T07:45:39.168Z,5.72
2022-11-05T07:48:06.422Z,5.10
2022-11-05T07:50:34.693Z,5.25
2022-11-05T07:53:02.159Z,6.60
2022-11-05T07:55:29.229Z,5.90
2022-11-05T08:01:25.767Z,6.38
2022-11-05T08:03:52.688Z,7.28
2022-11-05T08:06:19.276Z,6.30
2022-11-05T08:08:45.805Z,6.32
2022-11-05T08:11:12.413Z,6.47
2022-11-05T08:13:39.158Z,7.18
2022-11-05T08:16:06.529Z,5.95
2022-11-05T08:18:35.603Z,5.57
2022-11-05T08:21:04.183Z,5.18
2022-11-05T08:23:32.091Z,5.70
2022-11-05T08:25:58.945Z,5.60
2022-11-05T08:28:26.378Z,5.35
2022-11-05T08:30:54.705Z,4.80
2022-11-05T08:33:22.329Z,5.32
2022-11-05T08:35:50.690Z,5.82
2022-11-05T08:38:19.061Z,5.70
2022-11-05T08:40:52.895Z,5.43
2022-11-05T08:43:19.483Z,5.72
2022-11-05T08:45:46.181Z,6.35
2022-11-05T08:48:14.421Z,5.32
2022-11-05T08:50:41.203Z,5.20
2022-11-05T08:53:10.178Z,4.60
2022-11-05T08:55:37.300Z,4.78
2022-11-05T08:58:07.678Z,4.70
2022-11-05T09:00:36.693Z,4.20
2022-11-05T09:03:06.347Z,4.18
2022-11-05T09:05:34.215Z,3.80
2022-11-05T09:08:01.748Z,4.25
2022-11-05T09:10:29.715Z,4.22
2022-11-05T09:12:56.313Z,4.63
2022-11-05T09:15:22.986Z,4.00
2022-11-05T09:17:49.641Z,3.90
2022-11-05T09:20:16.140Z,3.80
2022-11-05T09:22:43.567Z,3.55
2022-11-05T09:25:10.351Z,3.85
2022-11-05T09:27:38.244Z,3.60
2022-11-05T09:30:05.636Z,3.70
2022-11-05T09:32:32.290Z,3.85
2022-11-05T09:34:59.069Z,3.20
2022-11-05T09:37:25.756Z,3.47
2022-11-05T09:39:52.479Z,3.80
2022-11-05T09:42:23.325Z,4.50
2022-11-05T09:44:54.468Z,3.35
2022-11-05T09:47:26.098Z,3.45
2022-11-05T09:49:55.016Z,3.20
2022-11-05T09:52:23.633Z,3.50
2022-11-05T09:54:50.551Z,2.80
2022-11-05T09:57:21.939Z,2.92
2022-11-05T09:59:53.289Z,2.70
2022-11-05T10:02:23.066Z,2.97
2022-11-05T10:04:53.914Z,4.07
2022-11-05T10:07:24.147Z,2.60
2022-11-05T10:09:56.600Z,2.83
2022-11-05T10:12:28.587Z,2.72
2022-11-05T10:15:07.111Z,3.25
2022-11-05T10:17:39.248Z,2.78
2022-11-05T10:20:15.043Z,2.25
2022-11-05T10:22:45.199Z,2.60
2022-11-05T10:25:18.839Z,2.58
2022-11-05T10:27:50.376Z,3.35
2022-11-05T10:30:18.874Z,2.60
2022-11-05T10:32:46.488Z,2.35
2022-11-05T10:35:15.691Z,2.72
2022-11-05T10:37:42.224Z,2.83
2022-11-05T10:40:16.273Z,3.17
2022-11-05T10:42:56.658Z,2.72
2022-11-05T10:45:32.621Z,2.97
2022-11-05T10:51:27.996Z,2.67
2022-11-05T10:54:01.840Z,2.28
2022-11-05T10:56:32.182Z,2.55
2022-11-05T10:59:00.137Z,2.60
2022-11-05T11:01:29.138Z,2.70
2022-11-05T11:04:07.122Z,2.58
2022-11-05T11:06:36.121Z,2.63
2022-11-05T11:09:06.460Z,2.45
2022-11-05T11:11:35.904Z,2.38
2022-11-05T11:14:05.139Z,2.38
2022-11-05T11:16:38.702Z,2.08
2022-11-05T11:19:23.797Z,2.40
2022-11-05T11:22:12.469Z,2.28
2022-11-05T11:24:40.633Z,2.20
2022-11-05T11:27:12.318Z,2.15
2022-11-05T11:29:46.449Z,2.00
2022-11-05T11:32:19.451Z,4.88
2022-11-05T11:34:51.135Z,3.45
2022-11-05T11:37:22.360Z,1.92
2022-11-05T11:39:52.110Z,2.22
2022-11-05T11:42:23.775Z,2.20
2022-11-05T11:44:51.549Z,2.33
2022-11-05T11:47:21.973Z,2.30
2022-11-05T11:49:51.637Z,1.63
2022-11-05T11:52:24.799Z,1.88
2022-11-05T11:54:52.064Z,1.48
2022-11-05T11:57:24.373Z,1.25
2022-11-05T12:00:08.305Z,2.00
2022-11-05T12:02:57.307Z,2.70
2022-11-05T12:05:35.507Z,1.90
2022-11-05T12:08:12.945Z,2.28
2022-11-05T12:10:54.755Z,1.50
2022-11-05T12:13:54.676Z,2.00
2022-11-05T12:16:33.770Z,1.83
2022-11-05T12:19:11.314Z,2.08
2022-11-05T12:21:53.077Z,2.58
2022-11-05T12:25:04.014Z,1.83
2022-11-05T12:27:45.760Z,2.05
2022-11-05T12:30:15.833Z,1.88
2022-11-05T12:33:06.690Z,1.40
2022-11-05T12:35:48.989Z,2.15
2022-11-05T12:38:32.480Z,1.58
2022-11-05T12:41:08.573Z,1.95
2022-11-05T12:43:48.906Z,2.13
2022-11-05T12:46:28.194Z,1.55
2022-11-05T12:49:18.288Z,1.50
2022-11-05T12:52:10.434Z,1.83
2022-11-05T12:54:52.900Z,1.25
2022-11-05T12:57:20.853Z,1.63
2022-11-05T12:59:52.274Z,1.50
2022-11-05T13:02:25.533Z,2.00
2022-11-05T13:04:56.424Z,1.73
2022-11-05T13:07:29.342Z,1.85
2022-11-05T13:10:00.811Z,1.92
2022-11-05T13:12:31.782Z,2.10
2022-11-05T13:15:03.031Z,1.92
2022-11-05T13:17:36.975Z,2.45
2022-11-05T13:20:16.979Z,2.10
2022-11-05T13:22:48.237Z,1.88
2022-11-05T13:25:19.928Z,1.77
2022-11-05T13:27:53.317Z,1.70
2022-11-05T13:30:22.587Z,2.13
2022-11-05T13:32:54.164Z,2.03
2022-11-05T13:35:24.955Z,2.88
2022-11-05T13:37:57.389Z,2.50
2022-11-05T13:40:36.142Z,2.47
2022-11-05T13:43:26.104Z,2.75
2022-11-05T13:46:20.012Z,3.08
2022-11-05T13:49:03.615Z,2.88
2022-11-05T13:51:49.956Z,3.28
2022-11-05T13:54:56.800Z,2.70
2022-11-05T13:57:48.308Z,2.47
2022-11-05T14:00:19.199Z,2.20
2022-11-05T14:02:51.428Z,2.15
2022-11-05T14:05:27.127Z,1.52
2022-11-05T14:07:54.727Z,1.80
2022-11-05T14:10:36.879Z,1.65
2022-11-05T14:13:18.717Z,2.03
2022-11-05T14:16:03.162Z,1.98
2022-11-05T14:18:44.851Z,1.30
2022-11-05T14:21:44.865Z,2.10
2022-11-05T14:24:42.171Z,1.58
2022-11-05T14:27:45.325Z,1.52
2022-11-05T14:30:43.994Z,2.33
2022-11-05T14:33:17.567Z,1.55
2022-11-05T14:35:44.124Z,1.60
2022-11-05T14:38:20.904Z,1.40
2022-11-05T14:40:48.689Z,2.00
2022-11-05T14:43:21.430Z,1.90
2022-11-05T14:45:57.030Z,1.80
2022-11-05T14:48:36.804Z,1.63
2022-11-05T14:51:24.281Z,1.58
2022-11-05T14:53:57.827Z,1.75
2022-11-05T14:56:24.667Z,2.38
2022-11-05T14:59:30.887Z,2.45
2022-11-05T15:02:01.486Z,2.65
2022-11-05T15:04:30.539Z,2.72
2022-11-05T15:07:31.764Z,2.42
2022-11-05T15:10:07.247Z,2.50
2022-11-05T15:12:41.095Z,1.40
2022-11-05T15:15:22.150Z,2.60
2022-11-05T15:17:58.192Z,1.77
2022-11-05T15:20:38.829Z,1.60
2022-11-05T15:23:11.279Z,2.30
2022-11-05T15:25:47.805Z,2.47
2022-11-05T15:28:28.970Z,1.88
2022-11-05T15:30:59.501Z,1.70
2022-11-05T15:33:26.214Z,2.25
2022-11-05T15:35:52.891Z,1.45
2022-11-05T15:38:29.353Z,1.63
2022-11-05T15:41:03.677Z,1.55
2022-11-05T15:43:30.504Z,2.63
2022-11-05T15:46:06.958Z,1.90
2022-11-05T15:48:35.603Z,1.90
2022-11-05T15:51:02.276Z,2.58
2022-11-05T15:54:23.867Z,4.35
2022-11-05T15:56:49.445Z,4.82
2022-11-05T15:59:18.273Z,3.13
2022-11-05T16:01:48.990Z,2.17
2022-11-05T16:04:18.663Z,2.63
2022-11-05T16:06:49.191Z,2.80
2022-11-05T16:09:21.922Z,2.90
2022-11-05T16:11:48.472Z,4.03
2022-11-05T16:14:17.540Z,3.58
2022-11-05T16:16:45.136Z,3.28
2022-11-05T16:19:40.226Z,3.17
2022-11-05T16:22:07.884Z,3.78
2022-11-05T16:24:34.591Z,4.80
2022-11-05T16:27:03.449Z,8.60
2022-11-05T16:29:32.958Z,6.35
2022-11-05T16:32:01.974Z,8.00
2022-11-05T16:34:33.449Z,6.93
2022-11-05T16:37:01.507Z,5.82
2022-11-05T16:39:28.029Z,5.47
2022-11-05T16:41:54.523Z,5.13
2022-11-05T16:44:21.085Z,6.18
2022-11-05T16:46:49.458Z,5.38
2022-11-05T16:49:17.165Z,6.13
2022-11-05T16:51:43.788Z,6.57
2022-11-05T16:54:11.648Z,6.03
2022-11-05T16:56:38.833Z,5.95
2022-11-05T16:59:05.375Z,5.60
2022-11-05T17:01:34.407Z,6.28
2022-11-05T17:04:01.154Z,6.50
2022-11-05T17:06:27.769Z,6.07
2022-11-05T17:08:54.341Z,5.55
2022-11-05T17:11:22.283Z,4.93
2022-11-05T17:13:48.849Z,5.55
2022-11-05T17:16:17.342Z,4.90
2022-11-05T17:18:44.241Z,4.75
2022-11-05T17:21:11.134Z,5.75
2022-11-05T17:23:37.830Z,5.10
2022-11-05T17:26:06.891Z,8.00
2022-11-05T17:28:35.642Z,11.95
2022-11-05T17:31:04.342Z,8.77
2022-11-05T17:33:31.102Z,5.28
2022-11-05T17:35:57.875Z,7.20
2022-11-05T17:38:25.929Z,5.05
2022-11-05T17:40:53.369Z,6.57
2022-11-05T17:43:20.334Z,7.70
2022-11-05T17:45:50.817Z,6.50
2022-11-05T17:48:18.155Z,6.13
2022-11-05T17:50:46.582Z,6.57
2022-11-05T17:53:14.751Z,7.63
2022-11-05T17:55:42.427Z,6.55
2022-11-05T17:58:09.570Z,5.97
2022-11-05T18:00:36.753Z,5.78
2022-11-05T18:03:05.403Z,5.45
2022-11-05T18:05:34.062Z,5.50
2022-11-05T18:08:00.790Z,4.80
2022-11-05T18:10:27.609Z,5.18
2022-11-05T18:12:54.526Z,5.30
2022-11-05T18:15:21.640Z,5.13
2022-11-05T18:17:48.285Z,5.22
2022-11-05T18:20:19.393Z,4.55
2022-11-05T18:22:48.098Z,4.53
2022-11-05T18:25:14.824Z,4.50
2022-11-05T18:27:41.995Z,4.82
2022-11-05T18:30:10.586Z,4.82
2022-11-05T18:32:38.056Z,4.60
2022-11-05T18:35:05.221Z,3.88
2022-11-05T18:37:33.144Z,5.20
2022-11-05T18:39:59.727Z,4.07
2022-11-05T18:42:26.268Z,4.50
2022-11-05T18:44:52.883Z,5.65
2022-11-05T18:47:19.605Z,5.72
2022-11-05T18:49:46.165Z,6.10
2022-11-05T18:52:12.807Z,6.05
2022-11-05T18:54:40.761Z,5.55
2022-11-05T18:57:07.521Z,5.25
2022-11-05T18:59:38.281Z,6.00
2022-11-05T19:02:06.340Z,5.93
2022-11-05T19:04:34.995Z,6.00
2022-11-05T19:07:04.709Z,6.15
2022-11-05T19:09:32.447Z,6.18
2022-11-05T19:12:00.970Z,5.53
2022-11-05T19:14:27.714Z,5.35
2022-11-05T19:16:54.702Z,4.97
2022-11-05T19:19:21.448Z,5.38
2022-11-05T19:21:47.998Z,4.65
2022-11-05T19:24:17.620Z,5.15
2022-11-05T19:26:44.581Z,5.03
2022-11-05T19:29:12.612Z,4.88
2022-11-05T19:31:39.212Z,4.75
2022-11-05T19:34:06.088Z,5.60
2022-11-05T19:36:33.533Z,5.45
2022-11-05T19:39:05.868Z,4.88
2022-11-05T19:41:32.459Z,4.70
2022-11-05T19:43:59.063Z,4.93
2022-11-05T19:46:28.379Z,5.50
2022-11-05T19:48:54.903Z,7.43
2022-11-05T19:51:23.370Z,8.82
2022-11-05T19:53:50.328Z,8.30
2022-11-05T19:56:19.953Z,9.65
2022-11-05T19:58:46.964Z,9.05
2022-11-05T20:01:15.268Z,8.30
2022-11-05T20:03:43.696Z,9.05
2022-11-05T20:06:12.583Z,9.75
2022-11-05T20:08:53.296Z,9.30
2022-11-05T20:11:26.601Z,8.95
2022-11-05T20:13:53.144Z,9.52
2022-11-05T20:16:21.725Z,10.70
2022-11-05T20:18:49.856Z,9.20
2022-11-05T20:21:16.984Z,11.35
2022-11-05T20:23:43.572Z,10.32
2022-11-05T20:26:11.249Z,10.27
2022-11-05T20:28:39.224Z,9.98
2022-11-05T20:31:10.490Z,10.73
2022-11-05T20:33:37.379Z,11.40
2022-11-05T20:36:16.039Z,11.50
2022-11-05T20:38:43.372Z,11.68
2022-11-05T20:41:12.059Z,11.40
2022-11-05T20:43:39.818Z,11.95
2022-11-05T20:46:06.496Z,11.30
2022-11-05T20:48:34.012Z,13.15
2022-11-05T20:51:06.471Z,13.20
2022-11-05T20:53:33.725Z,16.05
2022-11-05T20:56:05.057Z,20.42
2022-11-05T20:58:34.761Z,19.67
2022-11-05T21:01:01.382Z,22.60
2022-11-05T21:03:27.890Z,24.33
2022-11-05T21:05:55.859Z,18.80
2022-11-05T21:08:23.685Z,18.23
2022-11-05T21:10:51.520Z,11.10
2022-11-05T21:13:18.328Z,13.25
2022-11-05T21:15:48.389Z,13.35
2022-11-05T21:18:15.047Z,10.95
2022-11-05T21:20:41.593Z,10.88
2022-11-05T21:23:08.148Z,8.48
2022-11-05T21:25:38.546Z,7.50
2022-11-05T21:28:05.356Z,9.40
2022-11-05T21:30:32.131Z,9.65
2022-11-05T21:32:58.624Z,8.80
2022-11-05T21:35:25.280Z,7.03
2022-11-05T21:37:51.790Z,7.88
2022-11-05T21:40:18.304Z,8.07
2022-11-05T21:42:46.238Z,7.25
2022-11-05T21:45:12.743Z,6.78
2022-11-05T21:47:39.365Z,6.82
2022-11-05T21:50:06.916Z,7.43
2022-11-05T21:52:33.653Z,6.97
2022-11-05T21:55:00.105Z,6.80
2022-11-05T21:57:26.594Z,6.90
2022-11-05T21:59:54.928Z,6.00
2022-11-05T22:02:23.227Z,6.80
2022-11-05T22:04:51.935Z,7.03
2022-11-05T22:07:20.711Z,5.80
2022-11-05T22:09:47.675Z,6.32
2022-11-05T22:12:14.489Z,6.10
2022-11-05T22:14:41.054Z,5.65
2022-11-05T22:17:09.903Z,5.70
2022-11-05T22:19:36.700Z,6.15
2022-11-05T22:22:04.451Z,6.07
2022-11-05T22:24:31.205Z,5.97
2022-11-05T22:26:58.809Z,5.88
2022-11-05T22:29:25.427Z,6.30
2022-11-05T22:31:51.959Z,6.28
2022-11-05T22:34:20.166Z,5.72
2022-11-05T22:36:46.872Z,6.10
2022-11-05T22:39:13.848Z,5.75
2022-11-05T22:41:40.807Z,6.47
2022-11-05T22:44:07.538Z,6.07
2022-11-05T22:46:34.142Z,5.93
2022-11-05T22:49:00.619Z,6.45
2022-11-05T22:51:30.824Z,6.57
2022-11-05T22:53:57.964Z,6.82
2022-11-05T22:56:26.258Z,6.63
2022-11-05T22:58:52.928Z,7.38
2022-11-05T23:01:21.013Z,7.47
2022-11-05T23:03:49.338Z,7.60
2022-11-05T23:06:19.798Z,7.07
2022-11-05T23:08:47.691Z,8.15
2022-11-05T23:11:15.743Z,6.93
2022-11-05T23:13:42.280Z,8.15
2022-11-05T23:16:08.935Z,6.57
2022-11-05T23:18:35.457Z,7.32
2022-11-05T23:21:02.082Z,6.80
2022-11-05T23:23:28.688Z,6.65
2022-11-05T23:25:58.421Z,6.35
2022-11-05T23:28:25.071Z,6.60
2022-11-05T23:30:51.561Z,6.25
2022-11-05T23:33:18.069Z,6.28
2022-11-05T23:35:44.565Z,6.03
2022-11-05T23:38:11.323Z,6.93
2022-11-05T23:40:38.088Z,6.63
2022-11-05T23:43:05.974Z,5.72
2022-11-05T23:45:33.378Z,6.78
2022-11-05T23:48:06.619Z,7.13
2022-11-05T23:50:38.548Z,7.90
2022-11-05T23:53:06.724Z,6.18
2022-11-05T23:55:33.386Z,7.15
2022-11-05T23:57:59.972Z,6.20
